createdAt,value
2019-02-09T00:02:31.071Z,95243.45
2019-02-09T00:05:21.040Z,95265.91
2019-02-09T00:08:50.427Z,95258.70
2019-02-09T00:11:39.964Z,95253.66
2019-02-09T00:14:29.610Z,95258.64
2019-02-09T00:17:19.624Z,95257.33
2019-02-09T00:20:09.904Z,95247.19
2019-02-09T00:23:18.512Z,95243.45
2019-02-09T00:26:08.356Z,95251.53
2019-02-09T00:28:58.184Z,95236.45
2019-02-09T00:31:47.698Z,95238.23
2019-02-09T00:34:37.460Z,95231.22
2019-02-09T00:37:27.365Z,95233.98
2019-02-09T00:40:17.400Z,95217.65
2019-02-09T00:43:07.140Z,95229.84
2019-02-09T00:45:56.856Z,95234.96
2019-02-09T00:48:46.837Z,95235.87
2019-02-09T00:51:36.594Z,95229.27
2019-02-09T00:54:26.425Z,95222.09
2019-02-09T00:57:16.405Z,95219.40
2019-02-09T01:00:48.076Z,95229.70
2019-02-09T01:03:37.579Z,95218.16
2019-02-09T01:06:27.415Z,95224.38
2019-02-09T01:09:36.165Z,95214.78
2019-02-09T01:12:26.257Z,95221.19
2019-02-09T01:15:15.602Z,95223.77
2019-02-09T01:21:34.405Z,95239.44
2019-02-09T01:24:24.084Z,95236.00
2019-02-09T01:27:33.926Z,95227.60
2019-02-09T01:30:24.576Z,95243.95
2019-02-09T01:33:14.073Z,95251.78
2019-02-09T01:36:22.568Z,95249.80
2019-02-09T01:39:12.944Z,95251.16
2019-02-09T01:42:03.063Z,95252.46
2019-02-09T01:44:53.684Z,95246.88
2019-02-09T01:47:43.469Z,95246.12
2019-02-09T01:54:03.298Z,95233.17
2019-02-09T01:56:53.235Z,95242.36
2019-02-09T01:59:43.016Z,95224.72
2019-02-09T02:05:41.202Z,95223.44
2019-02-09T02:08:30.649Z,95221.77
2019-02-09T02:11:20.648Z,95228.09
2019-02-09T02:14:10.478Z,95217.88
2019-02-09T02:17:00.055Z,95216.45
2019-02-09T02:19:50.015Z,95219.47
2019-02-09T02:22:39.681Z,95212.77
2019-02-09T02:25:29.736Z,95213.13
2019-02-09T02:28:19.167Z,95205.78
2019-02-09T02:31:09.257Z,95204.72
2019-02-09T02:33:58.811Z,95208.53
2019-02-09T02:36:49.109Z,95209.38
2019-02-09T02:39:39.462Z,95201.23
2019-02-09T02:42:48.428Z,95216.52
2019-02-09T02:45:38.805Z,95216.52
2019-02-09T02:48:29.745Z,95208.42
2019-02-09T02:51:19.774Z,95208.34
2019-02-09T02:54:28.424Z,95217.80
2019-02-09T02:57:18.227Z,95217.80
2019-02-09T03:00:48.911Z,95216.53
2019-02-09T03:03:38.665Z,95196.77
2019-02-09T03:06:28.103Z,95201.68
2019-02-09T03:09:17.800Z,95206.47
2019-02-09T03:12:07.883Z,95198.57
2019-02-09T03:14:57.862Z,95199.72
2019-02-09T03:17:48.262Z,95194.92
2019-02-09T03:20:38.031Z,95199.48
2019-02-09T03:23:27.845Z,95195.78
2019-02-09T03:26:17.254Z,95202.83
2019-02-09T03:29:06.754Z,95210.70
2019-02-09T03:31:56.174Z,95210.57
2019-02-09T03:34:46.426Z,95205.59
2019-02-09T03:37:36.530Z,95210.37
2019-02-09T03:43:42.131Z,95206.80
2019-02-09T03:46:31.894Z,95201.75
2019-02-09T03:49:22.377Z,95193.38
2019-02-09T03:52:12.195Z,95186.44
2019-02-09T03:55:01.936Z,95185.16
2019-02-09T03:57:52.130Z,95187.92
2019-02-09T04:00:41.640Z,95180.77
2019-02-09T04:03:31.682Z,95182.17
2019-02-09T04:09:50.978Z,95186.16
2019-02-09T04:12:40.757Z,95176.43
2019-02-09T04:15:30.209Z,95168.89
2019-02-09T04:18:20.470Z,95160.37
2019-02-09T04:21:09.990Z,95162.09
2019-02-09T04:24:00.011Z,95155.45
2019-02-09T04:26:50.280Z,95150.05
2019-02-09T04:29:39.801Z,95149.45
2019-02-09T04:32:29.211Z,95130.98
2019-02-09T04:35:18.768Z,95113.55
2019-02-09T04:38:08.606Z,95110.52
2019-02-09T04:44:07.186Z,95100.02
2019-02-09T04:46:57.167Z,95107.95
2019-02-09T04:49:46.706Z,95102.97
2019-02-09T04:52:36.818Z,95092.63
2019-02-09T04:55:26.519Z,95086.98
2019-02-09T04:58:16.894Z,95095.86
2019-02-09T05:01:13.775Z,95086.61
2019-02-09T05:03:58.234Z,95078.64
2019-02-09T05:06:48.737Z,95095.00
2019-02-09T05:09:38.409Z,95075.69
2019-02-09T05:12:28.178Z,95072.13
2019-02-09T05:15:57.372Z,95067.13
2019-02-09T05:18:47.893Z,95070.58
2019-02-09T05:21:37.312Z,95074.83
2019-02-09T05:24:27.425Z,95075.86
2019-02-09T05:27:16.617Z,95086.42
2019-02-09T05:30:08.323Z,95084.63
2019-02-09T05:33:37.425Z,95087.20
2019-02-09T05:36:27.440Z,95107.52
2019-02-09T05:39:16.763Z,95114.84
2019-02-09T05:42:25.800Z,95159.53
2019-02-09T05:48:50.507Z,95181.12
2019-02-09T05:51:40.178Z,95192.34
2019-02-09T05:54:30.180Z,95191.41
2019-02-09T05:57:20.268Z,95193.64
2019-02-09T06:00:25.474Z,95211.02
2019-02-09T06:03:15.496Z,95211.02
2019-02-09T06:06:44.872Z,95225.30
2019-02-09T06:09:35.179Z,95238.45
2019-02-09T06:12:25.402Z,95246.97
2019-02-09T06:19:04.257Z,95255.73
2019-02-09T06:21:54.207Z,95255.73
2019-02-09T06:24:45.329Z,95255.89
2019-02-09T06:27:35.591Z,95254.27
2019-02-09T06:30:26.837Z,95258.05
2019-02-09T06:33:14.423Z,95268.16
2019-02-09T06:36:04.254Z,95263.02
2019-02-09T06:39:13.670Z,95262.47
2019-02-09T06:42:03.704Z,95262.47
2019-02-09T06:44:53.386Z,95289.50
2019-02-09T06:47:43.768Z,95303.39
2019-02-09T06:50:34.158Z,95306.73
2019-02-09T06:53:23.855Z,95307.48
2019-02-09T06:56:13.428Z,95317.56
2019-02-09T06:59:02.901Z,95324.08
2019-02-09T07:01:52.706Z,95314.15
2019-02-09T07:04:42.402Z,95323.18
2019-02-09T07:07:32.143Z,95314.47
2019-02-09T07:10:42.130Z,95335.53
2019-02-09T07:13:31.710Z,95324.88
2019-02-09T07:16:21.229Z,95322.36
2019-02-09T07:19:10.738Z,95336.12
2019-02-09T07:22:00.569Z,95342.09
2019-02-09T07:24:50.471Z,95356.64
2019-02-09T07:27:40.432Z,95360.52
2019-02-09T07:30:30.358Z,95360.41
2019-02-09T07:33:20.225Z,95362.05
2019-02-09T07:36:09.781Z,95352.34
2019-02-09T07:38:59.660Z,95370.41
2019-02-09T07:41:49.231Z,95365.12
2019-02-09T07:44:39.523Z,95373.14
2019-02-09T07:47:29.510Z,95376.41
2019-02-09T07:50:20.632Z,95383.44
2019-02-09T07:53:10.328Z,95382.63
2019-02-09T07:56:19.647Z,95372.00
2019-02-09T07:59:09.103Z,95384.89
2019-02-09T08:02:04.448Z,95384.59
2019-02-09T08:05:10.175Z,95398.31
2019-02-09T08:08:39.288Z,95387.02
2019-02-09T08:11:29.887Z,95384.42
2019-02-09T08:14:20.261Z,95402.50
2019-02-09T08:17:10.156Z,95393.14
2019-02-09T08:19:59.914Z,95388.13
2019-02-09T08:22:49.921Z,95391.03
2019-02-09T08:29:08.725Z,95391.19
2019-02-09T08:31:58.974Z,95395.55
2019-02-09T08:35:07.543Z,95383.95
2019-02-09T08:37:57.337Z,95393.62
2019-02-09T08:40:46.954Z,95394.58
2019-02-09T08:43:36.774Z,95394.75
2019-02-09T08:46:27.329Z,95387.13
2019-02-09T08:49:17.624Z,95393.45
2019-02-09T08:52:07.737Z,95410.27
2019-02-09T08:54:58.165Z,95400.25
2019-02-09T08:57:47.850Z,95402.03
2019-02-09T09:00:56.634Z,95404.61
2019-02-09T09:03:46.617Z,95413.47
2019-02-09T09:06:36.624Z,95411.23
2019-02-09T09:09:45.720Z,95402.50
2019-02-09T09:12:35.241Z,95398.14
2019-02-09T09:15:28.080Z,95403.11
2019-02-09T09:18:18.344Z,95412.48
2019-02-09T09:21:08.762Z,95402.91
2019-02-09T09:23:58.245Z,95415.77
2019-02-09T09:26:48.258Z,95411.52
2019-02-09T09:29:38.390Z,95406.73
2019-02-09T09:32:28.966Z,95407.03
2019-02-09T09:35:20.055Z,95400.13
2019-02-09T09:38:09.882Z,95409.52
2019-02-09T09:41:00.018Z,95400.37
2019-02-09T09:43:49.445Z,95401.23
2019-02-09T09:46:58.030Z,95404.47
2019-02-09T09:49:48.095Z,95407.06
2019-02-09T09:52:38.002Z,95408.36
2019-02-09T09:55:28.123Z,95406.56
2019-02-09T09:58:18.283Z,95412.71
2019-02-09T10:01:08.390Z,95410.29
2019-02-09T10:03:57.462Z,95403.12
2019-02-09T10:06:47.636Z,95413.31
2019-02-09T10:09:37.903Z,95418.63
2019-02-09T10:12:27.666Z,95414.75
2019-02-09T10:15:57.663Z,95420.05
2019-02-09T10:18:47.422Z,95416.73
2019-02-09T10:21:36.842Z,95422.42
2019-02-09T10:24:27.391Z,95427.22
2019-02-09T10:27:16.997Z,95424.55
2019-02-09T10:30:26.762Z,95419.86
2019-02-09T10:33:17.729Z,95420.66
2019-02-09T10:36:08.226Z,95420.05
2019-02-09T10:38:59.131Z,95418.84
2019-02-09T10:41:47.066Z,95420.37
2019-02-09T10:44:36.481Z,95416.30
2019-02-09T10:47:26.575Z,95413.79
2019-02-09T10:50:57.177Z,95418.39
2019-02-09T10:53:47.537Z,95420.45
2019-02-09T10:56:37.297Z,95428.67
2019-02-09T10:59:27.551Z,95425.00
2019-02-09T11:02:16.488Z,95418.56
2019-02-09T11:05:45.625Z,95436.45
2019-02-09T11:08:35.403Z,95427.83
2019-02-09T11:11:24.922Z,95417.82
2019-02-09T11:14:15.218Z,95404.58
2019-02-09T11:17:05.133Z,95414.15
2019-02-09T11:19:55.381Z,95417.58
2019-02-09T11:22:45.280Z,95413.80
2019-02-09T11:25:34.766Z,95414.33
2019-02-09T11:28:24.989Z,95409.80
2019-02-09T11:31:14.421Z,95418.98
2019-02-09T11:37:19.680Z,95416.86
2019-02-09T11:40:09.966Z,95416.69
2019-02-09T11:46:34.777Z,95424.38
2019-02-09T11:49:24.244Z,95417.69
2019-02-09T11:52:14.537Z,95437.55
2019-02-09T11:55:02.435Z,95420.14
2019-02-09T12:01:06.465Z,95440.04
2019-02-09T12:03:55.889Z,95425.59
2019-02-09T12:06:45.574Z,95438.69
2019-02-09T12:09:35.362Z,95421.72
2019-02-09T12:12:25.104Z,95412.77
2019-02-09T12:15:35.458Z,95411.44
2019-02-09T12:18:25.547Z,95422.94
2019-02-09T12:21:15.038Z,95422.21
2019-02-09T12:24:23.610Z,95412.84
2019-02-09T12:27:13.414Z,95406.47
2019-02-09T12:30:03.505Z,95416.53
2019-02-09T12:32:53.399Z,95412.59
2019-02-09T12:36:22.493Z,95428.97
2019-02-09T12:39:12.249Z,95418.80
2019-02-09T12:42:02.178Z,95438.77
2019-02-09T12:44:52.190Z,95413.10
2019-02-09T12:47:41.674Z,95433.22
2019-02-09T12:51:11.633Z,95435.30
2019-02-09T12:54:02.768Z,95437.80
2019-02-09T12:56:53.305Z,95424.34
2019-02-09T12:59:43.234Z,95422.58
2019-02-09T13:02:33.042Z,95412.74
2019-02-09T13:05:22.842Z,95412.24
2019-02-09T13:08:12.405Z,95431.78
2019-02-09T13:11:22.028Z,95411.41
2019-02-09T13:14:12.086Z,95423.13
2019-02-09T13:17:02.852Z,95431.05
2019-02-09T13:19:52.856Z,95456.23
2019-02-09T13:22:42.371Z,95433.38
2019-02-09T13:25:51.859Z,95443.16
2019-02-09T13:28:41.846Z,95431.36
2019-02-09T13:31:31.554Z,95445.89
2019-02-09T13:34:20.989Z,95440.14
2019-02-09T13:37:10.978Z,95445.71
2019-02-09T13:40:00.763Z,95449.73
2019-02-09T13:46:19.896Z,95440.12
2019-02-09T13:49:10.046Z,95443.27
2019-02-09T13:51:59.819Z,95434.68
2019-02-09T13:54:49.239Z,95443.58
2019-02-09T13:57:38.967Z,95443.30
2019-02-09T14:01:08.085Z,95448.18
2019-02-09T14:03:57.864Z,95451.76
2019-02-09T14:06:47.731Z,95455.25
2019-02-09T14:09:37.530Z,95460.42
2019-02-09T14:12:47.165Z,95449.19
2019-02-09T14:15:37.055Z,95443.25
2019-02-09T14:18:27.231Z,95456.17
2019-02-09T14:21:16.937Z,95457.02
2019-02-09T14:24:06.888Z,95459.53
2019-02-09T14:26:57.079Z,95459.53
2019-02-09T14:29:47.268Z,95458.27
2019-02-09T14:32:37.284Z,95469.34
2019-02-09T14:38:56.790Z,95465.70
2019-02-09T14:41:46.735Z,95452.57
2019-02-09T14:44:36.566Z,95448.16
2019-02-09T14:50:35.540Z,95444.90
2019-02-09T14:53:25.631Z,95456.98
2019-02-09T14:56:15.340Z,95446.44
2019-02-09T14:59:05.098Z,95450.82
2019-02-09T15:01:55.730Z,95466.08
2019-02-09T15:05:05.334Z,95458.42
2019-02-09T15:07:55.170Z,95452.95
2019-02-09T15:11:04.231Z,95452.04
2019-02-09T15:13:56.624Z,95438.56
2019-02-09T15:16:49.877Z,95437.38
2019-02-09T15:19:41.404Z,95453.65
2019-02-09T15:22:32.056Z,95455.61
2019-02-09T15:25:22.002Z,95450.42
2019-02-09T15:28:12.851Z,95453.02
2019-02-09T15:31:02.369Z,95460.79
2019-02-09T15:33:52.107Z,95452.70
2019-02-09T15:36:43.129Z,95453.05
2019-02-09T15:39:32.750Z,95448.01
2019-02-09T15:42:22.275Z,95461.33
2019-02-09T15:45:13.485Z,95467.17
2019-02-09T15:48:03.338Z,95461.02
2019-02-09T15:50:53.451Z,95462.16
2019-02-09T15:53:43.404Z,95470.79
2019-02-09T15:56:33.136Z,95474.37
2019-02-09T15:59:23.251Z,95484.28
2019-02-09T16:02:13.205Z,95479.91
2019-02-09T16:05:22.341Z,95478.61
2019-02-09T16:11:22.861Z,95478.95
2019-02-09T16:14:12.891Z,95479.48
2019-02-09T16:17:03.148Z,95484.66
2019-02-09T16:19:53.445Z,95488.17
2019-02-09T16:22:42.870Z,95500.14
2019-02-09T16:25:32.670Z,95488.95
2019-02-09T16:28:22.380Z,95492.38
2019-02-09T16:31:12.009Z,95486.55
2019-02-09T16:34:01.871Z,95482.66
2019-02-09T16:36:52.196Z,95484.80
2019-02-09T16:39:41.624Z,95487.20
2019-02-09T16:42:31.057Z,95492.73
2019-02-09T16:45:39.822Z,95493.88
2019-02-09T16:48:29.987Z,95490.14
2019-02-09T16:51:39.091Z,95494.19
2019-02-09T16:54:29.107Z,95508.45
2019-02-09T16:57:19.008Z,95513.16
2019-02-09T17:00:11.021Z,95508.62
2019-02-09T17:02:59.648Z,95506.37
2019-02-09T17:05:49.998Z,95505.22
2019-02-09T17:08:40.131Z,95510.58
2019-02-09T17:11:30.421Z,95513.64
2019-02-09T17:14:19.840Z,95510.58
2019-02-09T17:17:09.621Z,95511.08
2019-02-09T17:19:59.688Z,95503.48
2019-02-09T17:22:49.845Z,95510.42
2019-02-09T17:25:39.863Z,95508.97
2019-02-09T17:28:29.765Z,95521.27
2019-02-09T17:31:19.631Z,95517.69
2019-02-09T17:34:09.689Z,95523.99
2019-02-09T17:37:01.088Z,95526.09
2019-02-09T17:39:50.907Z,95519.30
2019-02-09T17:42:41.030Z,95528.66
2019-02-09T17:45:37.027Z,95517.69
2019-02-09T17:48:27.473Z,95516.06
2019-02-09T17:51:18.653Z,95522.72
2019-02-09T17:54:08.991Z,95527.07
2019-02-09T17:56:58.944Z,95529.17
2019-02-09T17:59:48.636Z,95533.20
2019-02-09T18:02:38.171Z,95529.63
2019-02-09T18:05:29.153Z,95537.06
2019-02-09T18:08:18.692Z,95549.02
2019-02-09T18:11:08.446Z,95539.81
2019-02-09T18:13:58.393Z,95541.59
2019-02-09T18:16:48.649Z,95534.34
2019-02-09T18:19:38.635Z,95529.98
2019-02-09T18:22:28.450Z,95528.20
2019-02-09T18:25:18.834Z,95536.75
2019-02-09T18:28:08.343Z,95533.38
2019-02-09T18:30:57.815Z,95531.89
2019-02-09T18:33:47.852Z,95531.90
2019-02-09T18:36:37.636Z,95537.39
2019-02-09T18:39:27.072Z,95538.52
2019-02-09T18:42:17.172Z,95535.64
2019-02-09T18:45:07.507Z,95547.41
2019-02-09T18:47:57.925Z,95542.88
2019-02-09T18:50:47.631Z,95546.28
2019-02-09T18:53:37.483Z,95547.41
2019-02-09T18:56:27.176Z,95543.36
2019-02-09T18:59:16.878Z,95539.17
2019-02-09T19:05:36.029Z,95541.27
2019-02-09T19:08:25.778Z,95535.13
2019-02-09T19:11:16.400Z,95533.19
2019-02-09T19:14:06.069Z,95538.70
2019-02-09T19:16:55.832Z,95531.59
2019-02-09T19:19:45.621Z,95532.24
2019-02-09T19:22:54.477Z,95523.52
2019-02-09T19:25:44.416Z,95526.72
2019-02-09T19:28:33.938Z,95526.43
2019-02-09T19:31:24.228Z,95529.17
2019-02-09T19:34:13.962Z,95521.25
2019-02-09T19:37:04.074Z,95524.34
2019-02-09T19:39:53.995Z,95522.21
2019-02-09T19:43:23.594Z,95518.51
2019-02-09T19:46:14.087Z,95521.26
2019-02-09T19:49:04.294Z,95523.02
2019-02-09T19:51:54.423Z,95523.98
2019-02-09T19:54:44.998Z,95526.22
2019-02-09T19:57:34.859Z,95522.67
2019-02-09T20:00:29.762Z,95516.23
2019-02-09T20:03:19.280Z,95517.20
2019-02-09T20:06:08.858Z,95518.63
2019-02-09T20:08:58.321Z,95522.53
2019-02-09T20:11:48.161Z,95517.52
2019-02-09T20:14:38.189Z,95525.44
2019-02-09T20:17:27.618Z,95520.75
2019-02-09T20:23:32.553Z,95519.30
2019-02-09T20:26:22.292Z,95514.78
2019-02-09T20:29:12.111Z,95508.94
2019-02-09T20:34:56.993Z,95514.10
2019-02-09T20:37:46.573Z,95510.58
2019-02-09T20:40:57.587Z,95512.02
2019-02-09T20:43:46.989Z,95518.97
2019-02-09T20:46:36.745Z,95527.37
2019-02-09T20:49:45.710Z,95532.06
2019-02-09T20:52:54.565Z,95526.75
2019-02-09T20:55:44.453Z,95526.41
2019-02-09T20:58:34.761Z,95527.21
2019-02-09T21:01:24.831Z,95526.89
2019-02-09T21:04:14.351Z,95529.31
2019-02-09T21:07:04.420Z,95538.36
2019-02-09T21:09:54.375Z,95545.80
2019-02-09T21:12:44.482Z,95547.41
2019-02-09T21:19:03.267Z,95525.41
2019-02-09T21:21:52.708Z,95518.31
2019-02-09T21:24:42.396Z,95521.83
2019-02-09T21:27:32.058Z,95526.70
2019-02-09T21:30:22.674Z,95528.45
2019-02-09T21:33:12.184Z,95519.56
2019-02-09T21:36:01.624Z,95523.77
2019-02-09T21:38:51.588Z,95527.96
2019-02-09T21:41:41.399Z,95526.66
2019-02-09T21:44:31.050Z,95524.58
2019-02-09T21:47:20.742Z,95532.00
2019-02-09T21:50:30.747Z,95537.16
2019-02-09T21:53:20.191Z,95538.78
2019-02-09T21:56:10.110Z,95537.49
2019-02-09T21:58:59.930Z,95532.00
2019-02-09T22:01:50.713Z,95535.55
2019-02-09T22:04:40.509Z,95536.80
2019-02-09T22:07:30.478Z,95534.10
2019-02-09T22:10:29.050Z,95531.23
2019-02-09T22:16:42.687Z,95536.07
2019-02-09T22:19:32.645Z,95530.91
2019-02-09T22:22:22.348Z,95541.89
2019-02-09T22:25:15.056Z,95520.59
2019-02-09T22:28:05.320Z,95526.57
2019-02-09T22:30:55.812Z,95520.75
2019-02-09T22:33:45.515Z,95512.52
2019-02-09T22:36:37.302Z,95516.05
2019-02-09T22:39:26.372Z,95513.78
2019-02-09T22:42:16.111Z,95514.23
2019-02-09T22:45:45.929Z,95504.23
2019-02-09T22:48:54.699Z,95514.84
2019-02-09T22:51:44.562Z,95512.91
2019-02-09T22:54:34.295Z,95510.16
2019-02-09T22:57:24.712Z,95511.45
2019-02-09T23:04:39.691Z,95503.22
2019-02-09T23:07:31.689Z,95505.50
2019-02-09T23:10:21.118Z,95501.41
2019-02-09T23:13:10.623Z,95500.86
2019-02-09T23:16:00.971Z,95503.57
2019-02-09T23:18:50.464Z,95509.42
2019-02-09T23:21:39.893Z,95500.47
2019-02-09T23:24:29.675Z,95502.91
2019-02-09T23:27:19.098Z,95498.25
2019-02-09T23:30:11.722Z,95503.55
2019-02-09T23:33:01.493Z,95501.80
2019-02-09T23:35:51.003Z,95505.23
2019-02-09T23:38:40.671Z,95498.39
2019-02-09T23:41:30.422Z,95487.61
2019-02-09T23:44:19.878Z,95480.38
2019-02-09T23:47:09.963Z,95480.05
2019-02-09T23:50:40.280Z,95477.62
2019-02-09T23:56:58.714Z,95467.72
2019-02-09T23:59:48.420Z,95477.38
